Time;durP1;ratioP1;P1;durP2;ratioP2;P2;SDS_P1;SDS_P2;PMS_P1;PMS_P2;Temp;Humidity;BMP_temperature;BMP_pressure;BME280_temperature;BME280_humidity;BME280_pressure;Samples;Min_cycle;Max_cycle;Signal;HPM_P1;HPM_P2
2021/12/09 00:01:28;;;;;;;3.33;1.92;;;;;;;19.47;40.70;100144.13;5038569;28;20161;-66
2021/12/09 00:03:57;;;;;;;6.82;2.72;;;;;;;19.43;40.44;100143.72;5043725;28;20087;-69
2021/12/09 00:06:27;;;;;;;5.78;2.60;;;;;;;19.38;40.61;100140.81;5039843;28;20037;-69
2021/12/09 00:08:54;;;;;;;;;;;;;;;19.35;40.72;100149.13;5043720;28;20044;-68
2021/12/09 00:11:20;;;;;;;3.40;2.15;;;;;;;19.31;41.01;100138.13;5040382;28;19916;-68
2021/12/09 00:13:47;;;;;;;5.10;3.00;;;;;;;19.20;40.89;100136.03;5043810;28;20114;-68
2021/12/09 00:16:12;;;;;;;4.78;2.67;;;;;;;19.19;41.06;100133.56;5037852;28;20544;-68
2021/12/09 00:18:38;;;;;;;4.68;2.40;;;;;;;19.14;41.02;100139.44;5044283;28;20049;-68
2021/12/09 00:21:04;;;;;;;3.78;2.25;;;;;;;19.09;41.08;100138.38;5041345;28;20040;-68
2021/12/09 00:23:29;;;;;;;4.18;2.08;;;;;;;19.04;41.26;100138.16;5040552;28;20531;-69
2021/12/09 00:25:55;;;;;;;4.55;2.40;;;;;;;19.02;41.05;100148.88;5056664;28;20036;-69
2021/12/09 00:28:20;;;;;;;3.22;2.00;;;;;;;18.95;41.22;100148.81;5042775;28;20514;-68
2021/12/09 00:30:46;;;;;;;6.95;2.22;;;;;;;18.95;41.08;100154.09;5042433;28;20398;-68
2021/12/09 00:33:15;;;;;;;3.38;2.30;;;;;;;18.92;41.33;100164.22;5041936;28;20402;-68
2021/12/09 00:35:47;;;;;;;4.55;2.45;;;;;;;18.88;41.25;100161.16;5039439;28;20694;-68
2021/12/09 00:38:21;;;;;;;3.53;2.28;;;;;;;18.83;41.33;100168.78;5041574;28;20037;-68
2021/12/09 00:40:49;;;;;;;3.13;2.53;;;;;;;18.82;41.30;100167.16;5042921;28;20052;-69
2021/12/09 00:43:18;;;;;;;4.45;2.10;;;;;;;18.78;41.64;100178.28;5039333;28;20128;-69
2021/12/09 00:45:45;;;;;;;3.88;2.25;;;;;;;18.74;41.41;100180.50;5040068;28;20043;-69
2021/12/09 00:48:11;;;;;;;5.20;2.20;;;;;;;18.71;41.53;100172.97;5041607;28;20069;-68
2021/12/09 00:50:36;;;;;;;4.10;2.53;;;;;;;18.58;41.67;100163.06;5038277;28;20759;-68
2021/12/09 00:53:02;;;;;;;4.10;2.20;;;;;;;18.66;41.58;100175.31;5042294;28;20127;-68
2021/12/09 00:55:28;;;;;;;4.38;2.22;;;;;;;18.65;41.68;100177.13;5043296;28;20032;-68
2021/12/09 00:57:53;;;;;;;6.63;3.20;;;;;;;18.60;41.61;100173.41;5040445;28;20115;-68
2021/12/09 01:00:21;;;;;;;8.10;2.85;;;;;;;18.55;41.72;100167.91;5040212;28;20037;-68
2021/12/09 01:02:48;;;;;;;3.25;2.35;;;;;;;18.50;41.82;100173.72;5040563;28;20036;-69
2021/12/09 01:05:14;;;;;;;3.83;2.20;;;;;;;18.51;41.81;100178.00;5050333;28;20316;-68
2021/12/09 01:07:40;;;;;;;4.40;2.28;;;;;;;18.46;41.85;100166.34;5040622;28;20037;-68
2021/12/09 01:10:10;;;;;;;3.83;2.55;;;;;;;18.46;41.75;100174.25;5037364;28;20041;-68
2021/12/09 01:12:35;;;;;;;4.50;2.70;;;;;;;18.41;41.99;100167.75;5041909;28;20047;-68
2021/12/09 01:15:03;;;;;;;3.95;2.38;;;;;;;18.39;42.06;100168.94;5054631;28;20475;-69
2021/12/09 01:17:28;;;;;;;6.03;2.50;;;;;;;18.38;41.98;100162.84;5041041;28;20032;-69
2021/12/09 01:19:54;;;;;;;6.95;2.72;;;;;;;18.36;41.96;100164.84;5038781;28;20125;-68
2021/12/09 01:22:26;;;;;;;4.65;2.40;;;;;;;18.31;41.97;100169.88;5037336;28;20037;-68
2021/12/09 01:24:52;;;;;;;4.38;2.42;;;;;;;18.32;42.01;100174.13;5041001;28;20398;-68
2021/12/09 01:27:17;;;;;;;3.83;2.35;;;;;;;18.27;41.99;100173.03;5039525;28;20298;-68
2021/12/09 01:29:51;;;;;;;3.13;2.40;;;;;;;18.28;41.83;100180.75;5036891;28;20048;-68
2021/12/09 01:32:24;;;;;;;6.30;2.50;;;;;;;18.23;41.97;100182.31;5039480;28;20044;-68
2021/12/09 01:34:49;;;;;;;4.00;2.28;;;;;;;18.22;42.13;100180.69;5039606;28;20037;-69
2021/12/09 01:37:15;;;;;;;4.78;2.65;;;;;;;18.19;42.12;100195.06;5039217;28;20044;-68
2021/12/09 01:39:40;;;;;;;5.55;2.55;;;;;;;18.17;42.00;100191.78;5040125;28;20044;-68
2021/12/09 01:42:06;;;;;;;3.58;2.40;;;;;;;18.16;42.31;100191.97;5040515;28;20525;-68
2021/12/09 01:44:32;;;;;;;3.30;2.22;;;;;;;18.09;42.33;100189.25;5041036;28;20040;-68
2021/12/09 01:46:58;;;;;;;3.70;2.53;;;;;;;18.05;42.11;100191.44;5040321;28;20769;-69
2021/12/09 01:49:24;;;;;;;4.20;2.47;;;;;;;18.04;42.36;100188.97;5037415;28;20051;-69
2021/12/09 01:51:49;;;;;;;3.20;2.22;;;;;;;18.05;42.20;100186.16;5040991;28;20039;-68
2021/12/09 01:54:15;;;;;;;5.80;2.55;;;;;;;18.03;42.26;100187.34;5039883;28;20036;-68
2021/12/09 01:56:41;;;;;;;4.30;2.35;;;;;;;18.03;42.22;100184.72;5035205;28;20037;-68
2021/12/09 01:59:07;;;;;;;4.97;2.72;;;;;;;17.99;42.18;100189.53;5039306;28;20403;-69
2021/12/09 02:01:34;;;;;;;4.75;2.35;;;;;;;17.95;42.44;100180.34;5040157;28;20033;-69
2021/12/09 02:04:03;;;;;;;2.58;2.10;;;;;;;17.97;42.37;100183.63;5040756;28;20077;-68
2021/12/09 02:06:29;;;;;;;4.60;3.10;;;;;;;17.94;42.26;100183.97;5038355;28;20611;-68
2021/12/09 02:08:56;;;;;;;4.20;2.70;;;;;;;17.92;42.44;100182.53;5034628;28;20044;-68
2021/12/09 02:11:22;;;;;;;5.85;2.55;;;;;;;17.87;42.52;100187.53;5038470;28;20115;-68
2021/12/09 02:13:55;;;;;;;4.53;2.67;;;;;;;17.85;42.46;100174.56;5039919;28;20384;-69
2021/12/09 02:16:21;;;;;;;3.95;2.30;;;;;;;17.86;42.49;100181.44;5052294;28;20033;-69
2021/12/09 02:18:47;;;;;;;3.25;2.20;;;;;;;17.79;42.49;100165.56;5039920;28;20372;-69
2021/12/09 02:21:19;;;;;;;6.25;2.53;;;;;;;17.75;42.49;100174.00;5036141;28;20052;-68
2021/12/09 02:23:48;;;;;;;5.20;2.40;;;;;;;17.76;42.64;100173.00;5037860;28;20039;-68
2021/12/09 02:26:16;;;;;;;3.83;2.53;;;;;;;17.75;42.55;100161.66;5040365;28;20036;-69
2021/12/09 02:28:43;;;;;;;4.63;2.10;;;;;;;17.72;42.63;100177.81;5040262;28;20036;-69
2021/12/09 02:31:09;;;;;;;4.22;2.28;;;;;;;17.72;42.75;100177.00;5038915;28;20045;-68
2021/12/09 02:33:36;;;;;;;3.83;2.40;;;;;;;17.69;42.59;100174.72;5039807;28;20470;-69
2021/12/09 02:36:02;;;;;;;4.65;2.42;;;;;;;17.69;42.60;100172.91;5051531;28;20420;-68
2021/12/09 02:38:28;;;;;;;4.18;2.58;;;;;;;17.69;42.84;100166.84;5040492;28;20040;-68
2021/12/09 02:40:56;;;;;;;5.15;2.70;;;;;;;17.69;42.51;100180.81;5038332;28;20029;-69
2021/12/09 02:43:29;;;;;;;3.40;2.53;;;;;;;17.64;42.63;100180.50;5040541;28;20048;-68
2021/12/09 02:45:56;;;;;;;3.30;2.30;;;;;;;17.61;42.72;100186.16;5039691;28;20068;-68
2021/12/09 02:48:23;;;;;;;2.85;2.08;;;;;;;17.58;42.99;100183.03;5039109;28;20123;-68
2021/12/09 02:50:51;;;;;;;4.05;2.40;;;;;;;17.57;42.78;100184.03;5039711;28;20688;-68
2021/12/09 02:53:19;;;;;;;4.57;2.70;;;;;;;17.61;42.59;100183.50;5037693;28;20087;-69
2021/12/09 02:55:45;;;;;;;4.05;2.28;;;;;;;17.56;42.73;100183.22;5036785;28;20179;-68
2021/12/09 02:58:11;;;;;;;4.88;2.60;;;;;;;17.50;42.75;100176.03;5040612;28;20139;-68
2021/12/09 03:01:12;;;;;;;3.22;2.45;;;;;;;17.52;42.93;100184.56;5022302;28;20124;-68
2021/12/09 03:03:49;;;;;;;4.15;2.20;;;;;;;17.54;42.69;100185.22;5055310;28;20044;-69
2021/12/09 03:06:17;;;;;;;5.32;2.70;;;;;;;17.45;42.74;100171.31;5037036;28;20550;-68
2021/12/09 03:08:43;;;;;;;3.33;2.45;;;;;;;17.47;42.82;100184.31;5038828;28;20074;-68
2021/12/09 03:11:21;;;;;;;3.88;2.80;;;;;;;17.52;42.65;100179.31;5040726;28;20111;-69
2021/12/09 03:13:51;;;;;;;5.22;2.70;;;;;;;17.47;42.84;100184.31;5040320;28;20112;-69
2021/12/09 03:16:19;;;;;;;2.45;2.25;;;;;;;17.48;42.64;100188.56;5035756;28;20029;-69
2021/12/09 03:18:51;;;;;;;3.25;2.22;;;;;;;17.45;42.73;100189.75;5040917;28;20036;-69
2021/12/09 03:21:22;;;;;;;5.45;2.63;;;;;;;17.45;42.59;100191.56;5039906;28;20040;-69
2021/12/09 03:23:48;;;;;;;3.67;2.22;;;;;;;17.44;42.81;100187.31;5040450;28;20132;-69
2021/12/09 03:26:17;;;;;;;4.32;2.47;;;;;;;17.40;42.68;100192.09;5038083;28;20037;-69
2021/12/09 03:28:43;;;;;;;4.97;2.70;;;;;;;17.40;42.78;100188.63;5046461;28;20037;-69
2021/12/09 03:31:09;;;;;;;4.18;2.35;;;;;;;17.38;42.64;100196.72;5037190;28;20095;-69
2021/12/09 03:33:34;;;;;;;4.43;2.70;;;;;;;17.35;42.82;100191.81;5020785;28;20049;-68
2021/12/09 03:36:04;;;;;;;4.47;2.58;;;;;;;17.41;42.69;100195.53;5039788;28;20123;-68
2021/12/09 03:38:30;;;;;;;4.13;2.35;;;;;;;17.37;42.75;100199.53;5056418;28;20041;-68
2021/12/09 03:40:55;;;;;;;5.03;2.50;;;;;;;17.35;42.58;100196.25;5043036;28;20060;-67
2021/12/09 03:43:22;;;;;;;3.17;2.47;;;;;;;17.39;42.60;100195.72;5043199;28;20327;-68
2021/12/09 03:45:50;;;;;;;3.40;2.38;;;;;;;17.28;42.83;100196.16;5041708;28;20029;-68
2021/12/09 03:48:17;;;;;;;4.35;2.75;;;;;;;17.33;42.77;100193.81;5042518;28;20071;-69
2021/12/09 03:50:44;;;;;;;4.72;2.40;;;;;;;17.28;42.79;100196.16;5042527;28;20853;-68
2021/12/09 03:53:09;;;;;;;4.65;2.30;;;;;;;17.28;42.83;100196.16;5042404;28;20483;-68
2021/12/09 03:55:35;;;;;;;6.93;2.55;;;;;;;17.29;42.59;100204.88;5043129;28;20102;-68
2021/12/09 03:58:01;;;;;;;3.22;2.28;;;;;;;17.26;42.67;100199.97;5034659;28;20128;-68
2021/12/09 04:00:28;;;;;;;5.70;2.55;;;;;;;17.25;42.81;100203.59;5051903;28;20087;-69
2021/12/09 04:02:54;;;;;;;4.28;2.30;;;;;;;17.22;42.75;100199.47;5043403;28;20068;-69
2021/12/09 04:05:20;;;;;;;4.18;2.60;;;;;;;17.19;42.83;100198.03;5035210;28;20061;-68
2021/12/09 04:07:45;;;;;;;4.13;2.42;;;;;;;17.23;42.81;100203.75;5043033;28;20154;-68
2021/12/09 04:10:11;;;;;;;4.03;2.50;;;;;;;17.20;42.81;100198.84;5040200;28;20041;-69
2021/12/09 04:12:37;;;;;;;2.80;2.08;;;;;;;17.22;42.54;100196.84;5042830;28;20037;-68
2021/12/09 04:15:04;;;;;;;6.70;2.85;;;;;;;17.18;42.78;100201.66;5042509;28;20033;-68
2021/12/09 04:17:30;;;;;;;4.72;3.13;;;;;;;17.18;42.69;100203.47;5040404;28;20028;-68
2021/12/09 04:19:56;;;;;;;3.13;2.25;;;;;;;17.31;42.30;100201.06;5041421;28;20047;-69
2021/12/09 04:22:21;;;;;;;3.35;2.40;;;;;;;17.38;42.22;100212.50;5043038;28;20041;-69
2021/12/09 04:24:49;;;;;;;3.88;2.55;;;;;;;17.40;42.37;100205.25;5041859;28;20040;-69
2021/12/09 04:27:15;;;;;;;5.85;2.90;;;;;;;17.49;41.94;100198.09;5043190;28;20756;-68
2021/12/09 04:29:40;;;;;;;4.45;2.70;;;;;;;17.57;41.98;100210.34;5025049;28;20033;-69
2021/12/09 04:32:06;;;;;;;3.60;2.20;;;;;;;17.67;41.75;100211.75;5039231;28;20463;-68
2021/12/09 04:34:32;;;;;;;3.60;2.25;;;;;;;17.76;41.67;100217.75;5040755;28;20144;-69
2021/12/09 04:36:58;;;;;;;3.17;2.20;;;;;;;17.84;41.68;100214.25;5038729;28;20140;-69
2021/12/09 04:39:24;;;;;;;3.97;2.40;;;;;;;18.00;41.45;100209.63;5041394;28;20037;-69
2021/12/09 04:41:50;;;;;;;4.60;2.40;;;;;;;18.14;41.26;100199.25;5041244;28;20394;-68
2021/12/09 04:44:16;;;;;;;5.15;2.60;;;;;;;18.24;41.10;100195.31;5041322;28;20051;-69
2021/12/09 04:46:42;;;;;;;3.40;2.30;;;;;;;18.37;41.19;100205.22;5038167;28;20568;-68
2021/12/09 04:49:07;;;;;;;7.22;2.53;;;;;;;18.47;41.13;100208.34;5041203;28;20041;-68
2021/12/09 04:51:34;;;;;;;3.50;2.70;;;;;;;18.54;41.00;100216.34;5040395;28;20632;-69
2021/12/09 04:54:00;;;;;;;4.63;2.30;;;;;;;18.62;40.94;100218.88;5042585;28;20041;-68
2021/12/09 04:56:26;;;;;;;5.07;2.35;;;;;;;18.68;40.83;100216.34;5040526;28;20029;-68
2021/12/09 04:58:52;;;;;;;4.18;2.30;;;;;;;18.73;40.90;100221.06;5040282;28;20048;-68
2021/12/09 05:01:18;;;;;;;3.97;2.63;;;;;;;18.79;40.64;100211.56;5037831;28;20072;-69
2021/12/09 05:03:47;;;;;;;3.10;1.98;;;;;;;18.84;40.67;100215.28;5030850;28;20076;-69
2021/12/09 05:06:12;;;;;;;5.70;2.35;;;;;;;18.92;40.42;100209.88;5037512;28;20029;-69
2021/12/09 05:08:44;;;;;;;3.45;1.98;;;;;;;18.99;40.36;100209.94;5016282;28;20036;-68
2021/12/09 05:11:30;;;;;;;4.55;2.50;;;;;;;19.01;40.39;100215.84;5040871;28;20047;-69
2021/12/09 05:13:56;;;;;;;2.80;2.20;;;;;;;19.06;40.21;100215.31;5019894;28;20506;-69
2021/12/09 05:16:22;;;;;;;3.70;2.30;;;;;;;19.10;40.40;100216.56;5040484;28;20055;-68
2021/12/09 05:18:50;;;;;;;2.17;1.85;;;;;;;19.12;40.40;100209.25;5041491;28;20033;-69
2021/12/09 05:21:17;;;;;;;2.80;2.35;;;;;;;19.12;40.24;100220.63;5039210;28;20432;-68
2021/12/09 05:23:43;;;;;;;5.13;2.33;;;;;;;19.13;40.07;100224.91;5042346;28;20090;-69
2021/12/09 05:26:09;;;;;;;3.42;2.10;;;;;;;19.14;40.26;100229.16;5056492;28;20036;-69
2021/12/09 05:28:36;;;;;;;4.07;2.30;;;;;;;19.13;40.38;100227.53;5037503;28;20045;-69
2021/12/09 05:33:51;;;;;;;5.68;2.40;;;;;;;19.18;40.16;100224.31;5034616;28;20036;-69
2021/12/09 05:36:18;;;;;;;6.25;2.67;;;;;;;19.16;40.05;100224.50;5042257;28;20036;-69
2021/12/09 05:38:44;;;;;;;3.58;2.38;;;;;;;19.19;40.18;100229.41;5033250;28;20124;-69
2021/12/09 05:41:10;;;;;;;4.45;2.38;;;;;;;19.17;39.88;100226.16;5040040;28;20029;-69
2021/12/09 05:43:37;;;;;;;3.55;2.30;;;;;;;19.22;40.17;100228.25;5009903;28;20395;-68
2021/12/09 05:46:03;;;;;;;3.45;2.20;;;;;;;19.23;39.93;100225.41;5036504;28;20707;-68
2021/12/09 05:48:30;;;;;;;3.13;2.30;;;;;;;19.25;39.50;100233.94;5033574;28;20052;-66
2021/12/09 05:50:56;;;;;;;2.55;1.90;;;;;;;19.28;39.82;100227.47;5038953;28;20079;-67
2021/12/09 05:53:22;;;;;;;3.85;2.20;;;;;;;19.26;40.11;100224.22;5054426;28;20040;-66
2021/12/09 05:55:48;;;;;;;4.97;2.40;;;;;;;19.27;39.77;100226.66;5038210;28;20430;-66
2021/12/09 05:58:16;;;;;;;3.53;2.50;;;;;;;19.30;40.01;100228.91;5016795;28;20112;-68
2021/12/09 06:00:42;;;;;;;3.45;2.50;;;;;;;19.33;39.74;100223.25;5033741;28;20036;-69
2021/12/09 06:03:09;;;;;;;4.97;2.25;;;;;;;19.35;39.82;100223.06;5038023;28;20521;-69
2021/12/09 06:05:35;;;;;;;3.05;2.10;;;;;;;19.37;39.72;100226.31;5037360;28;20044;-69
2021/12/09 06:08:01;;;;;;;3.58;2.38;;;;;;;19.39;39.77;100231.41;5036656;28;20047;-69
2021/12/09 06:10:27;;;;;;;3.25;2.00;;;;;;;19.42;39.69;100223.94;5037369;28;20036;-68
2021/12/09 06:12:53;;;;;;;4.10;2.55;;;;;;;19.47;39.78;100231.28;5029487;28;20097;-69
2021/12/09 06:15:19;;;;;;;5.13;2.47;;;;;;;19.49;39.58;100234.53;5036364;28;20067;-68
2021/12/09 06:17:44;;;;;;;5.00;2.20;;;;;;;19.50;39.46;100231.69;5037102;28;20047;-68
2021/12/09 06:20:10;;;;;;;3.63;2.15;;;;;;;19.49;39.80;100231.91;5034031;28;20309;-68
2021/12/09 06:22:35;;;;;;;4.15;2.03;;;;;;;19.53;39.69;100233.13;5037352;28;20037;-68
2021/12/09 06:25:03;;;;;;;3.53;2.40;;;;;;;19.55;39.59;100233.78;5049885;28;20035;-68
2021/12/09 06:27:28;;;;;;;4.97;2.35;;;;;;;19.49;39.51;100230.06;5038354;28;20036;-69
2021/12/09 06:29:54;;;;;;;2.78;2.05;;;;;;;19.52;39.53;100236.78;5038092;28;20379;-68
2021/12/09 06:32:19;;;;;;;3.88;2.10;;;;;;;19.50;39.66;100238.81;5034116;28;20037;-68
2021/12/09 06:34:45;;;;;;;2.88;2.00;;;;;;;19.50;39.64;100249.38;5049713;28;20044;-68
2021/12/09 06:37:10;;;;;;;3.90;2.53;;;;;;;19.49;39.58;100256.47;5032469;28;20040;-68
2021/12/09 06:39:36;;;;;;;3.30;2.53;;;;;;;19.48;39.48;100254.84;5052215;28;20306;-68
2021/12/09 06:42:02;;;;;;;3.80;2.20;;;;;;;19.47;39.53;100252.41;5038855;28;20048;-69
2021/12/09 06:44:27;;;;;;;4.03;2.20;;;;;;;19.47;39.28;100250.56;5039622;28;20040;-69
2021/12/09 06:46:55;;;;;;;5.35;2.70;;;;;;;19.47;39.48;100250.56;5036880;28;20059;-68
2021/12/09 06:49:22;;;;;;;4.13;2.30;;;;;;;19.49;39.34;100248.56;5052618;28;20650;-68
2021/12/09 06:51:48;;;;;;;5.65;2.55;;;;;;;19.44;39.47;100253.59;5038422;28;20029;-69
2021/12/09 06:54:13;;;;;;;3.70;2.10;;;;;;;19.43;39.28;100259.06;5036426;28;20467;-68
2021/12/09 06:56:39;;;;;;;4.53;2.42;;;;;;;19.41;39.53;100266.38;5032753;28;20037;-68
2021/12/09 06:59:04;;;;;;;5.45;3.25;;;;;;;19.41;39.54;100271.66;5036364;28;20513;-69
2021/12/09 07:01:30;;;;;;;6.05;2.40;;;;;;;19.42;39.28;100271.47;5032313;28;20045;-68
2021/12/09 07:03:55;;;;;;;3.78;2.20;;;;;;;19.43;39.31;100278.38;5052724;28;20635;-68
2021/12/09 07:06:21;;;;;;;2.47;2.13;;;;;;;19.46;39.18;100283.28;5037895;28;20118;-68
2021/12/09 07:08:49;;;;;;;7.15;2.35;;;;;;;19.47;39.30;100282.25;5038268;28;20094;-68
2021/12/09 07:11:20;;;;;;;2.63;2.10;;;;;;;19.55;39.13;100276.03;5055733;28;20399;-68
2021/12/09 07:13:47;;;;;;;4.40;2.40;;;;;;;19.55;39.06;100276.88;5042600;28;20509;-69
2021/12/09 07:16:13;;;;;;;5.65;2.42;;;;;;;19.62;39.07;100287.50;5040103;28;20434;-69
2021/12/09 07:18:40;;;;;;;4.28;2.25;;;;;;;19.63;39.40;100278.56;5038442;28;20052;-68
2021/12/09 07:21:06;;;;;;;4.47;2.28;;;;;;;19.68;39.00;100275.34;5029436;28;20052;-69
2021/12/09 07:23:32;;;;;;;5.30;2.40;;;;;;;19.67;39.06;100279.00;5037866;28;20041;-69
2021/12/09 07:25:58;;;;;;;4.90;2.50;;;;;;;19.72;39.05;100290.59;5054837;28;20116;-66
2021/12/09 07:28:24;;;;;;;5.18;2.40;;;;;;;19.73;39.03;100291.44;5040132;28;20047;-68
2021/12/09 07:30:50;;;;;;;3.58;2.17;;;;;;;19.70;38.74;100283.88;5040776;28;20825;-68
2021/12/09 07:33:15;;;;;;;3.70;2.15;;;;;;;19.73;38.94;100286.97;5041227;28;20123;-68
2021/12/09 07:35:43;;;;;;;4.65;2.40;;;;;;;19.74;39.00;100295.69;5036806;28;20546;-68
2021/12/09 07:38:09;;;;;;;4.22;2.13;;;;;;;19.71;39.03;100299.53;5037229;28;20090;-69
2021/12/09 07:40:36;;;;;;;2.70;2.10;;;;;;;19.69;38.96;100295.47;5043805;28;20045;-69
2021/12/09 07:43:02;;;;;;;3.40;2.05;;;;;;;19.70;38.91;100305.84;5037725;28;20139;-68
2021/12/09 07:45:29;;;;;;;5.03;2.33;;;;;;;19.69;38.88;100306.84;5039780;28;20040;-68
2021/12/09 07:47:55;;;;;;;4.03;2.30;;;;;;;19.69;38.84;100301.56;5038459;28;20047;-67
2021/12/09 07:50:28;;;;;;;3.55;2.33;;;;;;;19.68;38.88;100304.41;5040502;28;20684;-67
2021/12/09 07:52:55;;;;;;;2.92;2.13;;;;;;;19.67;38.84;100302.78;5037937;28;20033;-66
2021/12/09 07:55:22;;;;;;;4.03;2.50;;;;;;;19.64;38.81;100316.34;5038368;28;20029;-66
2021/12/09 07:57:48;;;;;;;3.58;2.30;;;;;;;19.61;39.00;100314.91;5041061;28;20068;-66
2021/12/09 08:00:17;;;;;;;5.28;2.65;;;;;;;19.57;38.69;100318.97;5039086;28;20040;-67
2021/12/09 08:02:45;;;;;;;3.60;2.35;;;;;;;19.52;38.84;100319.47;5038376;28;20043;-66
2021/12/09 08:05:12;;;;;;;5.75;2.40;;;;;;;19.53;38.79;100322.94;5041013;28;20457;-66
2021/12/09 08:07:41;;;;;;;3.20;2.50;;;;;;;19.50;38.94;100324.13;5036491;28;20045;-66
2021/12/09 08:10:08;;;;;;;4.03;2.42;;;;;;;19.52;39.11;100318.66;5035183;28;20033;-67
2021/12/09 08:12:34;;;;;;;4.53;2.15;;;;;;;19.53;38.84;100317.66;5036476;28;20104;-66
2021/12/09 08:15:00;;;;;;;4.60;2.78;;;;;;;19.53;38.76;100318.47;5036422;28;20471;-67
2021/12/09 08:20:14;;;;;;;5.57;2.53;;;;;;;19.43;39.09;100307.41;5033253;28;20052;-66
2021/12/09 08:22:41;;;;;;;3.40;2.40;;;;;;;19.41;39.05;100308.63;5040210;28;20140;-65
2021/12/09 08:25:09;;;;;;;5.15;2.70;;;;;;;19.35;39.21;100307.53;5036990;28;20566;-66
2021/12/09 08:27:36;;;;;;;4.18;2.13;;;;;;;19.40;39.00;100307.81;5037358;28;20039;-65
2021/12/09 08:30:06;;;;;;;5.53;2.50;;;;;;;19.43;39.06;100307.41;5039050;28;20041;-66
2021/12/09 08:32:35;;;;;;;8.40;2.50;;;;;;;19.45;39.04;100317.78;5038481;28;20036;-66
2021/12/09 08:35:01;;;;;;;5.32;2.63;;;;;;;19.47;39.20;100321.06;5054591;28;20547;-66
2021/12/09 08:37:29;;;;;;;5.05;2.50;;;;;;;19.47;39.25;100315.78;5038399;28;20129;-65
2021/12/09 08:39:54;;;;;;;3.75;2.08;;;;;;;19.54;39.16;100327.22;5054281;28;20040;-67
2021/12/09 08:42:20;;;;;;;4.40;2.33;;;;;;;19.60;39.09;100326.50;5035902;28;20033;-66
2021/12/09 08:44:46;;;;;;;5.05;2.20;;;;;;;19.67;39.02;100327.34;5038210;28;20037;-67
2021/12/09 08:47:12;;;;;;;3.78;2.03;;;;;;;19.71;39.00;100322.50;5038621;28;20045;-65
2021/12/09 08:49:37;;;;;;;3.78;2.13;;;;;;;19.75;38.79;100316.66;5037369;28;20071;-65
2021/12/09 08:52:04;;;;;;;3.55;2.22;;;;;;;19.74;39.12;100315.00;5040682;28;20037;-65
2021/12/09 08:54:30;;;;;;;6.72;2.50;;;;;;;19.81;39.06;100320.38;5040237;28;20033;-65
2021/12/09 08:56:57;;;;;;;4.63;2.33;;;;;;;19.81;38.93;100315.91;5035129;28;20574;-66
2021/12/09 08:59:22;;;;;;;3.28;1.95;;;;;;;19.82;38.98;100327.28;5036138;28;20045;-65
2021/12/09 09:01:48;;;;;;;4.93;2.15;;;;;;;19.82;39.01;100328.09;5038215;28;20071;-66
2021/12/09 09:04:15;;;;;;;3.45;2.00;;;;;;;19.80;39.14;100322.19;5051072;28;20083;-65
2021/12/09 09:06:55;;;;;;;5.20;2.30;;;;;;;19.81;38.97;100328.28;5041249;28;20128;-66
2021/12/09 09:09:21;;;;;;;4.47;2.15;;;;;;;19.79;38.98;100323.19;5038959;28;20048;-65
2021/12/09 09:11:47;;;;;;;5.88;2.50;;;;;;;19.79;39.02;100325.03;5037549;28;20036;-66
2021/12/09 09:14:13;;;;;;;2.70;2.13;;;;;;;19.75;39.09;100327.25;5052715;28;20032;-66
2021/12/09 09:16:38;;;;;;;3.60;2.30;;;;;;;19.73;39.07;100320.47;5040368;28;20071;-65
2021/12/09 09:19:05;;;;;;;4.53;2.60;;;;;;;19.72;39.09;100327.59;5042013;28;20065;-66
2021/12/09 09:21:31;;;;;;;4.25;2.20;;;;;;;19.68;39.12;100315.78;5033922;28;20075;-66
2021/12/09 09:23:57;;;;;;;3.95;2.20;;;;;;;19.70;39.03;100326.16;5037114;28;20064;-66
2021/12/09 09:26:24;;;;;;;2.90;2.10;;;;;;;19.67;39.28;100315.97;5036479;28;20129;-66
2021/12/09 09:28:49;;;;;;;3.00;2.20;;;;;;;19.68;39.12;100322.88;5037662;28;20036;-66
2021/12/09 09:31:15;;;;;;;3.58;2.15;;;;;;;19.65;39.13;100320.63;5040318;28;20033;-66
2021/12/09 09:33:41;;;;;;;4.60;2.50;;;;;;;19.65;38.89;100312.72;5036505;28;20029;-66
2021/12/09 09:36:07;;;;;;;4.07;2.10;;;;;;;19.64;39.09;100313.72;5039730;28;20037;-65
2021/12/09 09:38:33;;;;;;;4.85;2.50;;;;;;;19.64;39.07;100317.19;5039441;28;20040;-66
2021/12/09 09:41:13;;;;;;;5.32;2.42;;;;;;;19.68;39.13;100322.88;5038961;28;20041;-65
2021/12/09 09:46:26;;;;;;;4.80;2.40;;;;;;;19.72;39.18;100314.38;5040212;28;19994;-65
2021/12/09 09:48:53;;;;;;;5.72;2.47;;;;;;;19.77;39.21;100309.38;5039117;28;20037;-65
2021/12/09 09:51:22;;;;;;;3.95;2.33;;;;;;;19.78;39.30;100305.72;5040575;28;20726;-66
2021/12/09 09:53:48;;;;;;;3.97;2.50;;;;;;;19.75;39.27;100299.97;5040851;28;20040;-65
2021/12/09 09:56:18;;;;;;;4.90;2.38;;;;;;;19.79;39.33;100309.16;5037070;28;20059;-66
2021/12/09 09:58:48;;;;;;;3.88;2.30;;;;;;;19.81;39.21;100296.59;5038210;28;20029;-65
2021/12/09 10:01:15;;;;;;;3.40;2.10;;;;;;;19.79;39.32;100295.97;5036904;28;20032;-65
2021/12/09 10:03:46;;;;;;;4.22;2.00;;;;;;;19.76;39.24;100294.53;5035103;28;20110;-65
2021/12/09 10:06:12;;;;;;;;;;;;;;;19.75;39.21;100298.19;5038154;28;20075;-67
2021/12/09 10:08:39;;;;;;;3.80;2.03;;;;;;;19.75;39.34;100303.47;5033952;28;20422;-67
2021/12/09 10:11:05;;;;;;;4.30;2.65;;;;;;;19.71;39.30;100302.19;5033933;28;20037;-67
2021/12/09 10:13:34;;;;;;;4.43;2.47;;;;;;;19.72;39.40;100303.81;5034221;28;20041;-66
2021/12/09 10:16:04;;;;;;;2.13;1.90;;;;;;;19.70;39.31;100303.19;5035528;28;20192;-67
2021/12/09 10:18:37;;;;;;;5.50;2.65;;;;;;;19.68;39.53;100301.75;5034652;28;20056;-67
2021/12/09 10:21:05;;;;;;;4.03;2.20;;;;;;;19.70;39.52;100303.19;5035405;28;20041;-67
2021/12/09 10:23:45;;;;;;;3.92;2.10;;;;;;;19.71;39.36;100302.19;5033047;28;20114;-67
2021/12/09 10:26:20;;;;;;;3.85;2.38;;;;;;;19.71;39.45;100298.72;5036833;28;20042;-66
2021/12/09 10:29:03;;;;;;;4.53;2.33;;;;;;;19.67;39.56;100303.59;5037372;28;20025;-67
2021/12/09 10:31:36;;;;;;;3.25;2.08;;;;;;;19.66;39.46;100301.13;5032180;28;20140;-69
2021/12/09 10:34:17;;;;;;;4.80;2.38;;;;;;;19.64;39.55;100298.69;5033403;28;20151;-69
2021/12/09 10:37:02;;;;;;;4.43;2.35;;;;;;;19.57;39.54;100290.72;5034063;28;20047;-66
2021/12/09 10:40:09;;;;;;;3.40;2.10;;;;;;;19.58;39.54;100297.63;5031201;28;20041;-67
2021/12/09 10:42:39;;;;;;;5.35;2.25;;;;;;;19.56;39.62;100299.63;5034103;28;20937;-67
2021/12/09 10:45:07;;;;;;;3.97;2.30;;;;;;;19.56;39.66;100301.44;5047014;28;20528;-67
2021/12/09 10:52:56;;;;;;;4.60;2.22;;;;;;;19.68;39.63;100294.66;5040590;28;20044;-66
2021/12/09 10:55:32;;;;;;;3.00;2.10;;;;;;;19.69;39.55;100288.34;5042631;28;20357;-67
2021/12/09 10:58:12;;;;;;;3.40;2.10;;;;;;;19.73;39.48;100294.88;5043931;28;20135;-69
2021/12/09 11:00:57;;;;;;;6.03;2.38;;;;;;;19.76;39.56;100299.00;5039436;28;20372;-70
2021/12/09 11:03:25;;;;;;;3.30;1.77;;;;;;;19.77;39.61;100296.16;5039350;28;20054;-68
2021/12/09 11:05:55;;;;;;;2.95;1.98;;;;;;;19.78;39.52;100292.50;5038067;28;20032;-69
2021/12/09 11:08:30;;;;;;;4.03;1.90;;;;;;;19.81;39.51;100291.31;5042205;28;20075;-68
2021/12/09 11:10:58;;;;;;;5.57;2.20;;;;;;;19.84;39.33;100299.66;5044178;28;20791;-67
2021/12/09 11:13:23;;;;;;;2.80;1.58;;;;;;;19.80;39.52;100293.13;5044709;28;20053;-67
2021/12/09 11:15:57;;;;;;;2.65;1.77;;;;;;;19.81;39.70;100297.41;5041004;28;20091;-66
2021/12/09 11:18:45;;;;;;;7.43;2.75;;;;;;;19.84;39.74;100297.00;5045657;28;20143;-66
2021/12/09 11:21:34;;;;;;;3.22;2.05;;;;;;;19.85;40.24;100281.97;5040712;28;20395;-65
2021/12/09 11:24:06;;;;;;;6.20;2.70;;;;;;;19.86;40.24;100281.78;5041052;28;20648;-69
2021/12/09 11:26:49;;;;;;;5.57;2.80;;;;;;;19.82;40.09;100285.81;5043477;28;20044;-69
2021/12/09 11:29:28;;;;;;;6.65;2.90;;;;;;;19.71;39.52;100296.09;5042370;28;20090;-68
2021/12/09 11:32:24;;;;;;;6.70;2.90;;;;;;;19.63;39.30;100299.69;5040154;28;20531;-68
2021/12/09 11:35:04;;;;;;;6.35;2.80;;;;;;;19.68;39.34;100299.94;5038783;28;20471;-68
2021/12/09 11:37:40;;;;;;;5.32;2.55;;;;;;;19.72;39.58;100298.53;5042452;28;20094;-68
2021/12/09 11:40:07;;;;;;;6.82;2.95;;;;;;;19.74;39.67;100293.88;5044669;28;20051;-68
2021/12/09 11:42:59;;;;;;;6.18;2.83;;;;;;;19.74;39.72;100293.06;5045598;28;20174;-68
2021/12/09 11:45:29;;;;;;;5.10;2.40;;;;;;;19.76;39.72;100293.72;5044391;28;20552;-67